createdAt,value
2023-05-14T00:00:04.917Z,88.53
2023-05-14T00:01:04.852Z,88.23
2023-05-14T00:02:04.949Z,88.68
2023-05-14T00:03:04.983Z,88.88
2023-05-14T00:04:04.922Z,88.47
2023-05-14T00:05:04.863Z,88.62
2023-05-14T00:06:04.830Z,88.51
2023-05-14T00:07:04.824Z,89.33
2023-05-14T00:08:04.829Z,90.40
2023-05-14T00:09:04.823Z,91.42
2023-05-14T00:10:04.772Z,91.74
2023-05-14T00:11:04.723Z,91.63
2023-05-14T00:12:04.842Z,91.63
2023-05-14T00:13:04.813Z,91.53
2023-05-14T00:14:04.700Z,91.69
2023-05-14T00:15:04.660Z,91.18
2023-05-14T00:16:04.735Z,90.87
2023-05-14T00:17:04.620Z,91.22
2023-05-14T00:18:04.798Z,91.12
2023-05-14T00:19:04.620Z,91.22
2023-05-14T00:20:05.412Z,91.22
2023-05-14T00:21:04.585Z,91.27
2023-05-14T00:22:04.766Z,92.40
2023-05-14T00:23:04.643Z,92.70
2023-05-14T00:24:04.674Z,92.80
2023-05-14T00:25:04.557Z,92.91
2023-05-14T00:26:04.626Z,92.80
2023-05-14T00:27:04.533Z,92.60
2023-05-14T00:28:04.505Z,92.55
2023-05-14T00:29:04.518Z,92.55
2023-05-14T00:30:04.453Z,92.76
2023-05-14T00:31:04.552Z,92.25
2023-05-14T00:32:04.462Z,92.66
2023-05-14T00:33:04.441Z,94.10
2023-05-14T00:34:04.555Z,95.43
2023-05-14T00:35:04.486Z,95.23
2023-05-14T00:36:04.446Z,94.15
2023-05-14T00:37:04.370Z,93.23
2023-05-14T00:38:04.431Z,92.41
2023-05-14T00:39:04.337Z,91.75
2023-05-14T00:40:04.712Z,91.35
2023-05-14T00:41:04.419Z,91.35
2023-05-14T00:42:04.326Z,91.91
2023-05-14T00:43:04.336Z,91.71
2023-05-14T00:44:04.271Z,90.48
2023-05-14T00:45:04.315Z,89.97
2023-05-14T00:46:04.266Z,89.76
2023-05-14T00:47:04.331Z,89.45
2023-05-14T00:48:04.307Z,89.36
2023-05-14T00:49:04.231Z,89.25
2023-05-14T00:50:04.253Z,89.25
2023-05-14T00:51:04.197Z,89.25
2023-05-14T00:52:04.425Z,89.45
2023-05-14T00:53:04.275Z,89.56
2023-05-14T00:54:04.141Z,89.76
2023-05-14T00:55:04.155Z,89.66
2023-05-14T00:56:04.149Z,89.81
2023-05-14T00:57:04.292Z,89.90
2023-05-14T00:58:04.119Z,90.01
2023-05-14T00:59:04.072Z,90.42
2023-05-14T01:00:04.314Z,90.52
2023-05-14T01:01:04.148Z,90.32
2023-05-14T01:02:04.121Z,90.32
2023-05-14T01:03:04.160Z,90.67
2023-05-14T01:04:04.166Z,90.87
2023-05-14T01:05:03.978Z,91.08
2023-05-14T01:06:04.024Z,91.18
2023-05-14T01:07:03.995Z,91.18
2023-05-14T01:08:04.205Z,91.08
2023-05-14T01:09:04.810Z,91.18
2023-05-14T01:10:03.988Z,91.42
2023-05-14T01:11:03.934Z,91.42
2023-05-14T01:12:03.916Z,91.74
2023-05-14T01:13:03.858Z,91.84
2023-05-14T01:14:03.898Z,91.94
2023-05-14T01:15:03.888Z,91.94
2023-05-14T01:16:03.892Z,92.14
2023-05-14T01:17:03.839Z,92.35
2023-05-14T01:18:03.953Z,92.35
2023-05-14T01:19:03.881Z,92.66
2023-05-14T01:20:03.998Z,93.17
2023-05-14T01:21:03.785Z,93.32
2023-05-14T01:22:03.848Z,93.12
2023-05-14T01:23:03.752Z,93.32
2023-05-14T01:24:03.898Z,93.21
2023-05-14T01:25:03.863Z,93.21
2023-05-14T01:26:04.485Z,93.21
2023-05-14T01:27:03.672Z,93.12
2023-05-14T01:28:03.733Z,93.73
2023-05-14T01:29:03.662Z,93.73
2023-05-14T01:30:03.613Z,93.73
2023-05-14T01:31:03.768Z,94.08
2023-05-14T01:32:04.393Z,94.18
2023-05-14T01:33:03.652Z,94.29
2023-05-14T01:34:03.757Z,94.70
2023-05-14T01:35:04.067Z,94.70
2023-05-14T01:36:05.154Z,94.49
2023-05-14T01:37:04.611Z,94.18
2023-05-14T01:38:03.592Z,94.08
2023-05-14T01:39:03.674Z,94.29
2023-05-14T01:40:03.514Z,94.64
2023-05-14T01:41:03.566Z,95.05
2023-05-14T01:42:03.503Z,95.25
2023-05-14T01:43:04.449Z,95.15
2023-05-14T01:44:03.458Z,95.15
2023-05-14T01:45:03.427Z,94.99
2023-05-14T01:46:03.450Z,94.99
2023-05-14T01:47:03.604Z,95.09
2023-05-14T01:48:03.605Z,95.40
2023-05-14T01:49:03.380Z,95.81
2023-05-14T01:50:03.438Z,95.92
2023-05-14T01:51:03.494Z,96.06
2023-05-14T01:52:03.374Z,95.86
2023-05-14T01:53:03.796Z,95.65
2023-05-14T01:54:03.432Z,95.75
2023-05-14T01:55:03.294Z,96.42
2023-05-14T01:56:03.261Z,96.62
2023-05-14T01:57:03.258Z,96.21
2023-05-14T01:58:03.312Z,96.31
2023-05-14T01:59:03.305Z,96.46
2023-05-14T02:00:03.281Z,96.15
2023-05-14T02:01:03.260Z,95.84
2023-05-14T02:02:03.270Z,95.89
2023-05-14T02:03:03.226Z,95.99
2023-05-14T02:04:03.263Z,96.50
2023-05-14T02:05:07.015Z,96.75
2023-05-14T02:06:03.133Z,96.75
2023-05-14T02:07:03.136Z,96.96
2023-05-14T02:08:03.187Z,97.21
2023-05-14T02:09:03.076Z,97.42
2023-05-14T02:10:03.135Z,97.52
2023-05-14T02:11:03.800Z,97.56
2023-05-14T02:12:03.209Z,97.77
2023-05-14T02:13:03.033Z,98.29
2023-05-14T02:14:03.141Z,98.60
2023-05-14T02:15:03.244Z,99.73
2023-05-14T02:16:03.048Z,99.99
2023-05-14T02:17:03.040Z,99.99
2023-05-14T02:18:03.068Z,99.99
2023-05-14T02:19:03.014Z,99.99
2023-05-14T02:20:02.978Z,99.99
2023-05-14T02:21:02.987Z,99.99
2023-05-14T02:22:02.989Z,99.99
2023-05-14T02:23:03.011Z,99.99
2023-05-14T02:24:02.948Z,99.99
2023-05-14T02:25:03.026Z,99.99
2023-05-14T02:26:02.891Z,99.99
2023-05-14T02:27:02.936Z,99.99
2023-05-14T02:28:02.892Z,99.99
2023-05-14T02:29:03.066Z,99.99
2023-05-14T02:30:02.900Z,99.99
2023-05-14T02:31:02.979Z,99.99
2023-05-14T02:32:02.814Z,99.99
2023-05-14T02:33:02.875Z,99.99
2023-05-14T02:34:02.772Z,99.99
2023-05-14T02:35:02.819Z,99.99
2023-05-14T02:36:02.787Z,99.99
2023-05-14T02:37:02.745Z,99.99
2023-05-14T02:38:02.832Z,99.99
2023-05-14T02:39:02.734Z,99.99
2023-05-14T02:40:02.691Z,99.99
2023-05-14T02:41:02.683Z,99.99
2023-05-14T02:42:02.748Z,99.99
2023-05-14T02:43:02.662Z,99.99
2023-05-14T02:44:02.722Z,99.99
2023-05-14T02:45:02.591Z,99.99
2023-05-14T02:46:02.660Z,99.99
2023-05-14T02:47:02.686Z,99.99
2023-05-14T02:48:02.624Z,99.99
2023-05-14T02:49:02.577Z,99.99
2023-05-14T02:50:02.585Z,99.99
2023-05-14T02:51:02.522Z,99.99
2023-05-14T02:52:02.534Z,99.99
2023-05-14T02:53:02.490Z,99.99
2023-05-14T02:54:02.462Z,99.99
2023-05-14T02:55:02.462Z,99.99
2023-05-14T02:56:02.417Z,99.99
2023-05-14T02:57:02.440Z,99.99
2023-05-14T02:58:02.496Z,99.99
2023-05-14T02:59:02.416Z,99.99
2023-05-14T03:00:02.376Z,99.99
2023-05-14T03:01:02.463Z,99.99
2023-05-14T03:02:02.502Z,99.99
2023-05-14T03:03:02.399Z,99.99
2023-05-14T03:04:02.341Z,99.99
2023-05-14T03:05:02.350Z,99.99
2023-05-14T03:06:02.362Z,99.99
2023-05-14T03:07:03.210Z,99.99
2023-05-14T03:08:02.288Z,99.99
2023-05-14T03:09:02.269Z,99.99
2023-05-14T03:10:02.302Z,99.99
2023-05-14T03:11:02.218Z,99.99
2023-05-14T03:12:02.202Z,99.99
2023-05-14T03:13:02.239Z,99.99
2023-05-14T03:14:02.228Z,99.99
2023-05-14T03:15:02.298Z,99.99
2023-05-14T03:16:02.177Z,99.99
2023-05-14T03:17:02.243Z,99.99
2023-05-14T03:18:02.303Z,99.99
2023-05-14T03:19:02.149Z,99.99
2023-05-14T03:20:02.173Z,99.99
2023-05-14T03:21:02.093Z,99.99
2023-05-14T03:22:02.096Z,99.99
2023-05-14T03:23:02.065Z,99.99
2023-05-14T03:24:02.033Z,99.99
2023-05-14T03:25:02.099Z,99.99
2023-05-14T03:26:02.266Z,99.99
2023-05-14T03:27:02.037Z,99.99
2023-05-14T03:28:02.010Z,99.99
2023-05-14T03:29:01.968Z,99.99
2023-05-14T03:30:02.743Z,99.99
2023-05-14T03:31:03.421Z,99.99
2023-05-14T03:32:03.971Z,99.99
2023-05-14T03:33:02.223Z,99.99
2023-05-14T03:34:03.931Z,99.99
2023-05-14T03:35:02.004Z,99.99
2023-05-14T03:36:02.200Z,99.99
2023-05-14T03:37:01.950Z,99.99
2023-05-14T03:38:02.076Z,99.99
2023-05-14T03:39:01.827Z,99.99
2023-05-14T03:40:01.815Z,99.99
2023-05-14T03:41:01.814Z,99.99
2023-05-14T03:42:02.058Z,99.99
2023-05-14T03:43:02.154Z,99.99
2023-05-14T03:44:01.814Z,99.99
2023-05-14T03:45:01.916Z,99.99
2023-05-14T03:46:01.848Z,99.99
2023-05-14T03:47:01.982Z,99.99
2023-05-14T03:48:03.715Z,99.99
2023-05-14T03:49:02.126Z,99.99
2023-05-14T03:50:01.881Z,99.99
2023-05-14T03:51:02.221Z,99.99
2023-05-14T03:52:03.619Z,99.99
2023-05-14T03:53:02.721Z,99.99
2023-05-14T03:54:01.859Z,99.99
2023-05-14T03:55:01.682Z,99.99
2023-05-14T03:56:02.470Z,99.99
2023-05-14T03:57:01.609Z,99.99
2023-05-14T03:58:02.634Z,99.99
2023-05-14T03:59:24.639Z,99.99
2023-05-14T04:00:01.903Z,99.99
2023-05-14T04:01:01.728Z,99.99
2023-05-14T04:02:03.882Z,99.99
2023-05-14T04:03:02.897Z,99.99
2023-05-14T04:04:02.655Z,99.99
2023-05-14T04:05:01.447Z,99.99
2023-05-14T04:06:02.192Z,99.99
2023-05-14T04:07:01.528Z,99.99
2023-05-14T04:08:01.435Z,99.99
2023-05-14T04:09:01.421Z,99.99
2023-05-14T04:10:04.200Z,99.99
2023-05-14T04:11:01.410Z,99.99
2023-05-14T04:12:01.388Z,99.99
2023-05-14T04:13:01.351Z,99.99
2023-05-14T04:14:01.464Z,99.99
2023-05-14T04:15:01.391Z,99.99
2023-05-14T04:16:02.277Z,99.99
2023-05-14T04:17:01.365Z,99.99
2023-05-14T04:18:01.426Z,99.99
2023-05-14T04:19:01.349Z,99.99
2023-05-14T04:20:01.321Z,99.99
2023-05-14T04:21:01.254Z,99.99
2023-05-14T04:22:01.312Z,99.99
2023-05-14T04:23:01.203Z,99.99
2023-05-14T04:24:01.350Z,99.99
2023-05-14T04:25:01.598Z,99.99
2023-05-14T04:26:01.198Z,99.99
2023-05-14T04:27:01.241Z,99.99
2023-05-14T04:28:01.186Z,99.99
2023-05-14T04:29:01.138Z,99.99
2023-05-14T04:30:01.170Z,99.99
2023-05-14T04:31:01.922Z,99.99
2023-05-14T04:32:01.217Z,99.99
2023-05-14T04:33:01.941Z,99.99
2023-05-14T04:34:01.101Z,99.99
2023-05-14T04:35:01.180Z,99.99
2023-05-14T04:36:01.006Z,99.99
2023-05-14T04:37:01.286Z,99.99
2023-05-14T04:38:01.025Z,99.99
2023-05-14T04:39:01.024Z,99.99
2023-05-14T04:40:01.038Z,99.99
2023-05-14T04:41:01.073Z,99.99
2023-05-14T04:42:00.987Z,99.99
2023-05-14T04:43:00.904Z,99.99
2023-05-14T04:44:00.934Z,99.99
2023-05-14T04:45:00.927Z,99.99
2023-05-14T04:46:00.919Z,99.99
2023-05-14T04:47:01.091Z,99.99
2023-05-14T04:48:01.179Z,99.99
2023-05-14T04:49:00.853Z,99.99
2023-05-14T04:50:00.821Z,99.99
2023-05-14T04:51:00.812Z,99.99
2023-05-14T04:52:00.884Z,99.99
2023-05-14T04:53:00.820Z,99.99
2023-05-14T04:54:00.846Z,99.99
2023-05-14T04:55:00.771Z,99.99
2023-05-14T04:56:00.838Z,99.99
2023-05-14T04:57:00.746Z,99.99
2023-05-14T04:58:01.082Z,99.99
2023-05-14T04:59:00.761Z,99.99
2023-05-14T05:00:00.765Z,99.99
2023-05-14T05:01:00.815Z,99.99
2023-05-14T05:02:00.794Z,99.99
2023-05-14T05:03:00.944Z,99.99
2023-05-14T05:04:00.792Z,99.99
2023-05-14T05:05:00.780Z,99.99
2023-05-14T05:06:00.807Z,99.99
2023-05-14T05:07:00.683Z,99.99
2023-05-14T05:08:00.591Z,99.54
2023-05-14T05:09:02.099Z,99.03
2023-05-14T05:10:00.769Z,99.40
2023-05-14T05:11:00.567Z,99.40
2023-05-14T05:12:00.550Z,99.04
2023-05-14T05:13:00.565Z,98.94
2023-05-14T05:14:00.626Z,98.33
2023-05-14T05:15:01.445Z,97.81
2023-05-14T05:16:00.559Z,97.87
2023-05-14T05:17:00.586Z,97.77
2023-05-14T05:18:00.903Z,97.77
2023-05-14T05:19:00.456Z,97.56
2023-05-14T05:20:01.245Z,97.15
2023-05-14T05:21:00.425Z,96.95
2023-05-14T05:22:00.445Z,96.84
2023-05-14T05:23:00.388Z,96.74
2023-05-14T05:24:00.492Z,95.92
2023-05-14T05:25:00.361Z,95.82
2023-05-14T05:26:00.437Z,95.88
2023-05-14T05:27:00.309Z,95.98
2023-05-14T05:28:00.289Z,96.19
2023-05-14T05:29:00.277Z,96.29
2023-05-14T05:30:00.283Z,96.08
2023-05-14T05:31:00.361Z,95.94
2023-05-14T05:32:00.598Z,95.22
2023-05-14T05:33:00.426Z,95.22
2023-05-14T05:34:00.686Z,94.87
2023-05-14T05:35:00.455Z,94.11
2023-05-14T05:36:00.320Z,94.32
2023-05-14T05:37:00.227Z,93.96
2023-05-14T05:38:01.936Z,94.17
2023-05-14T05:39:00.207Z,93.10
2023-05-14T05:40:00.173Z,91.74
2023-05-14T05:41:00.144Z,91.22
2023-05-14T05:42:00.190Z,90.77
2023-05-14T05:43:00.161Z,90.53
2023-05-14T05:44:00.575Z,89.06
2023-05-14T05:45:00.527Z,88.31
2023-05-14T05:46:00.133Z,87.55
2023-05-14T05:47:00.078Z,86.59
2023-05-14T05:48:00.124Z,86.08
2023-05-14T05:49:00.113Z,85.74
2023-05-14T05:50:00.009Z,84.17
2023-05-14T05:50:59.922Z,85.05
2023-05-14T05:51:59.971Z,83.69
2023-05-14T05:52:59.964Z,82.64
2023-05-14T05:53:59.939Z,81.68
2023-05-14T05:54:59.963Z,81.27
2023-05-14T05:55:59.895Z,79.92
2023-05-14T05:56:59.925Z,79.38
2023-05-14T05:57:59.856Z,78.63
2023-05-14T05:58:59.859Z,77.92
2023-05-14T05:59:59.889Z,77.88
2023-05-14T06:00:59.852Z,77.95
2023-05-14T06:01:59.853Z,77.03
2023-05-14T06:03:00.826Z,77.00
2023-05-14T06:03:59.795Z,76.70
2023-05-14T06:05:00.340Z,75.95
2023-05-14T06:06:00.825Z,75.04
2023-05-14T06:07:00.502Z,75.81
2023-05-14T06:07:59.819Z,75.41
2023-05-14T06:08:59.715Z,76.22
2023-05-14T06:09:59.876Z,75.68
2023-05-14T06:10:59.828Z,74.13
2023-05-14T06:11:59.752Z,73.93
2023-05-14T06:12:59.702Z,74.29
2023-05-14T06:13:59.688Z,74.36
2023-05-14T06:14:59.806Z,73.85
2023-05-14T06:15:59.722Z,73.42
2023-05-14T06:16:59.646Z,72.11
2023-05-14T06:17:59.665Z,71.70
2023-05-14T06:18:59.598Z,72.98
2023-05-14T06:19:59.523Z,72.44
2023-05-14T06:20:59.549Z,72.24
2023-05-14T06:21:59.532Z,71.20
2023-05-14T06:22:59.591Z,70.56
2023-05-14T06:23:59.525Z,70.56
2023-05-14T06:24:59.553Z,70.83
2023-05-14T06:25:59.578Z,69.49
2023-05-14T06:26:59.539Z,68.68
2023-05-14T06:27:59.422Z,67.38
2023-05-14T06:28:59.471Z,68.65
2023-05-14T06:29:59.411Z,68.72
2023-05-14T06:30:59.389Z,67.71
2023-05-14T06:31:59.510Z,67.48
2023-05-14T06:32:59.503Z,66.44
2023-05-14T06:33:59.393Z,65.94
2023-05-14T06:34:59.437Z,63.43
2023-05-14T06:35:59.413Z,64.94
2023-05-14T06:36:59.403Z,66.11
2023-05-14T06:37:59.305Z,62.90
2023-05-14T06:38:59.411Z,63.17
2023-05-14T06:39:59.281Z,64.28
2023-05-14T06:40:59.244Z,63.95
2023-05-14T06:41:59.313Z,63.11
2023-05-14T06:42:59.268Z,63.21
2023-05-14T06:43:59.261Z,63.92
2023-05-14T06:44:59.178Z,62.48
2023-05-14T06:45:59.164Z,61.68
2023-05-14T06:46:59.220Z,61.58
2023-05-14T06:47:59.480Z,60.95
2023-05-14T06:48:59.743Z,60.25
2023-05-14T06:49:59.192Z,59.85
2023-05-14T06:50:59.106Z,59.92
2023-05-14T06:51:59.098Z,59.55
2023-05-14T06:52:59.061Z,58.75
2023-05-14T06:53:59.153Z,58.45
2023-05-14T06:54:59.097Z,57.55
2023-05-14T06:55:59.116Z,58.52
2023-05-14T06:56:59.032Z,57.62
2023-05-14T06:57:59.024Z,58.09
2023-05-14T06:58:59.070Z,59.66
2023-05-14T06:59:59.052Z,57.87
2023-05-14T07:00:59.021Z,58.44
2023-05-14T07:01:58.983Z,58.21
2023-05-14T07:02:59.096Z,58.01
2023-05-14T07:03:58.979Z,57.48
2023-05-14T07:04:58.942Z,55.39
2023-05-14T07:05:59.561Z,56.88
2023-05-14T07:06:58.888Z,57.65
2023-05-14T07:07:58.894Z,55.36
2023-05-14T07:08:58.927Z,56.83
2023-05-14T07:09:58.863Z,56.93
2023-05-14T07:10:58.948Z,56.10
2023-05-14T07:12:02.677Z,55.41
2023-05-14T07:12:59.865Z,54.08
2023-05-14T07:13:58.806Z,54.19
2023-05-14T07:14:58.757Z,53.49
2023-05-14T07:15:59.554Z,53.27
2023-05-14T07:16:58.898Z,53.53
2023-05-14T07:17:58.863Z,52.44
2023-05-14T07:18:59.547Z,52.64
2023-05-14T07:19:58.727Z,52.04
2023-05-14T07:20:58.718Z,51.25
2023-05-14T07:21:58.767Z,52.14
2023-05-14T07:22:58.708Z,53.34
2023-05-14T07:23:58.681Z,53.04
2023-05-14T07:24:58.685Z,52.42
2023-05-14T07:25:58.593Z,51.72
2023-05-14T07:26:58.649Z,51.60
2023-05-14T07:27:58.627Z,50.90
2023-05-14T07:28:58.674Z,50.88
2023-05-14T07:29:58.596Z,50.48
2023-05-14T07:30:58.617Z,50.35
2023-05-14T07:31:59.167Z,49.46
2023-05-14T07:32:58.596Z,49.26
2023-05-14T07:33:58.533Z,48.49
2023-05-14T07:34:58.547Z,49.07
2023-05-14T07:35:58.506Z,48.47
2023-05-14T07:36:58.486Z,49.36
2023-05-14T07:37:59.504Z,49.36
2023-05-14T07:38:58.526Z,48.66
2023-05-14T07:39:58.504Z,48.47
2023-05-14T07:40:58.531Z,49.16
2023-05-14T07:41:58.459Z,48.74
2023-05-14T07:42:58.445Z,48.92
2023-05-14T07:43:58.461Z,48.32
2023-05-14T07:44:58.391Z,47.33
2023-05-14T07:45:58.442Z,47.90
2023-05-14T07:46:59.174Z,47.19
2023-05-14T07:47:58.554Z,47.09
2023-05-14T07:48:58.295Z,45.79
2023-05-14T07:49:58.363Z,45.79
2023-05-14T07:50:58.328Z,44.01
2023-05-14T07:51:58.403Z,43.04
2023-05-14T07:52:58.251Z,44.06
2023-05-14T07:53:58.217Z,43.85
2023-05-14T07:54:58.232Z,45.15
2023-05-14T07:55:58.241Z,46.04
2023-05-14T07:56:58.299Z,46.30
2023-05-14T07:57:58.330Z,44.60
2023-05-14T07:58:58.255Z,46.07
2023-05-14T07:59:58.180Z,43.40
2023-05-14T08:00:58.182Z,41.91
2023-05-14T08:01:58.284Z,43.77
2023-05-14T08:02:58.474Z,44.56
2023-05-14T08:03:58.213Z,45.83
2023-05-14T08:04:58.132Z,44.42
2023-05-14T08:05:58.073Z,44.20
2023-05-14T08:06:58.964Z,41.53
2023-05-14T08:07:58.119Z,42.52
2023-05-14T08:08:58.143Z,42.11
2023-05-14T08:09:58.020Z,42.08
2023-05-14T08:10:58.273Z,41.79
2023-05-14T08:11:58.080Z,40.50
2023-05-14T08:12:58.093Z,41.57
2023-05-14T08:13:57.947Z,41.57
2023-05-14T08:14:57.995Z,42.05
2023-05-14T08:15:57.977Z,39.40
2023-05-14T08:16:58.296Z,42.24
2023-05-14T08:17:57.972Z,40.56
2023-05-14T08:18:57.959Z,40.86
2023-05-14T08:19:57.882Z,38.12
2023-05-14T08:20:57.975Z,40.07
2023-05-14T08:21:58.003Z,39.38
2023-05-14T08:22:57.877Z,39.48
2023-05-14T08:23:57.913Z,39.09
2023-05-14T08:24:57.851Z,39.58
2023-05-14T08:25:57.866Z,38.69
2023-05-14T08:26:57.802Z,38.59
2023-05-14T08:27:57.778Z,39.06
2023-05-14T08:28:57.856Z,40.45
2023-05-14T08:29:57.779Z,39.15
2023-05-14T08:30:57.812Z,37.47
2023-05-14T08:31:58.250Z,38.75
2023-05-14T08:32:57.754Z,38.95
2023-05-14T08:33:57.742Z,38.26
2023-05-14T08:34:57.762Z,39.42
2023-05-14T08:35:57.727Z,37.66
2023-05-14T08:36:57.718Z,38.28
2023-05-14T08:37:57.737Z,37.41
2023-05-14T08:38:57.756Z,37.01
2023-05-14T08:39:57.611Z,37.19
2023-05-14T08:40:57.716Z,39.26
2023-05-14T08:41:57.588Z,36.50
2023-05-14T08:42:57.605Z,36.30
2023-05-14T08:43:57.598Z,37.39
2023-05-14T08:44:57.611Z,38.45
2023-05-14T08:45:57.773Z,37.66
2023-05-14T08:46:57.568Z,39.62
2023-05-14T08:47:57.698Z,37.74
2023-05-14T08:48:57.605Z,37.05
2023-05-14T08:49:57.505Z,37.74
2023-05-14T08:50:57.496Z,38.54
2023-05-14T08:51:57.536Z,37.26
2023-05-14T08:52:57.500Z,38.62
2023-05-14T08:53:57.514Z,38.49
2023-05-14T08:54:57.441Z,36.72
2023-05-14T08:55:57.429Z,37.71
2023-05-14T08:56:57.414Z,37.22
2023-05-14T08:57:57.538Z,36.51
2023-05-14T08:58:57.366Z,36.79
2023-05-14T08:59:57.445Z,34.92
2023-05-14T09:00:57.422Z,35.90
2023-05-14T09:01:57.380Z,34.90
2023-05-14T09:02:57.401Z,34.20
2023-05-14T09:03:57.345Z,33.70
2023-05-14T09:04:57.376Z,32.53
2023-05-14T09:05:59.366Z,35.18
2023-05-14T09:06:57.257Z,34.78
2023-05-14T09:07:57.357Z,34.22
2023-05-14T09:08:57.246Z,35.88
2023-05-14T09:09:57.553Z,36.95
2023-05-14T09:10:57.219Z,35.18
2023-05-14T09:11:57.304Z,32.84
2023-05-14T09:12:57.215Z,33.65
2023-05-14T09:13:57.197Z,34.86
2023-05-14T09:14:57.270Z,35.05
2023-05-14T09:15:57.178Z,36.61
2023-05-14T09:16:57.798Z,36.11
2023-05-14T09:17:57.179Z,36.79
2023-05-14T09:18:57.251Z,35.80
2023-05-14T09:19:57.196Z,33.36
2023-05-14T09:20:57.121Z,34.87
2023-05-14T09:21:57.169Z,35.64
2023-05-14T09:22:57.055Z,37.51
2023-05-14T09:23:57.045Z,36.41
2023-05-14T09:24:57.078Z,34.84
2023-05-14T09:25:57.017Z,34.23
2023-05-14T09:26:57.091Z,35.80
2023-05-14T09:27:58.681Z,35.88
2023-05-14T09:28:56.986Z,35.00
2023-05-14T09:29:56.968Z,35.69
2023-05-14T09:30:56.982Z,33.51
2023-05-14T09:31:57.062Z,33.79
2023-05-14T09:32:56.940Z,35.34
2023-05-14T09:33:56.938Z,34.15
2023-05-14T09:34:56.966Z,33.58
2023-05-14T09:35:58.394Z,33.39
2023-05-14T09:36:56.880Z,33.00
2023-05-14T09:37:56.882Z,32.79
2023-05-14T09:38:56.891Z,32.28
2023-05-14T09:39:56.833Z,32.46
2023-05-14T09:40:56.801Z,33.25
2023-05-14T09:41:56.804Z,34.23
2023-05-14T09:42:57.720Z,32.27
2023-05-14T09:43:56.783Z,34.03
2023-05-14T09:44:56.770Z,32.46
2023-05-14T09:45:56.843Z,32.94
2023-05-14T09:46:56.899Z,31.76
2023-05-14T09:47:56.793Z,33.62
2023-05-14T09:48:56.728Z,29.82
2023-05-14T09:49:56.744Z,32.07
2023-05-14T09:50:56.679Z,32.87
2023-05-14T09:51:56.660Z,30.02
2023-05-14T09:52:56.681Z,32.38
2023-05-14T09:53:56.698Z,30.22
2023-05-14T09:54:56.654Z,31.70
2023-05-14T09:55:56.616Z,31.53
2023-05-14T09:56:56.620Z,32.93
2023-05-14T09:57:56.629Z,33.87
2023-05-14T09:58:56.672Z,33.75
2023-05-14T09:59:56.633Z,33.25
2023-05-14T10:00:56.600Z,34.05
2023-05-14T10:01:56.623Z,33.97
2023-05-14T10:02:56.681Z,33.58
2023-05-14T10:03:56.667Z,33.34
2023-05-14T10:04:56.622Z,30.59
2023-05-14T10:05:56.511Z,31.67
2023-05-14T10:06:56.568Z,31.28
2023-05-14T10:07:56.513Z,32.60
2023-05-14T10:08:56.448Z,32.69
2023-05-14T10:09:57.679Z,33.86
2023-05-14T10:10:56.458Z,31.18
2023-05-14T10:11:56.458Z,32.54
2023-05-14T10:12:56.430Z,33.13
2023-05-14T10:13:56.526Z,32.12
2023-05-14T10:14:56.435Z,32.77
2023-05-14T10:15:56.400Z,32.70
2023-05-14T10:16:56.437Z,32.90
2023-05-14T10:17:56.375Z,35.20
2023-05-14T10:18:57.494Z,34.00
2023-05-14T10:19:56.352Z,33.86
2023-05-14T10:20:56.287Z,34.86
2023-05-14T10:21:56.280Z,34.91
2023-05-14T10:22:56.410Z,34.99
2023-05-14T10:23:56.283Z,34.56
2023-05-14T10:24:56.241Z,33.15
2023-05-14T10:25:56.288Z,35.17
2023-05-14T10:26:56.206Z,34.92
2023-05-14T10:27:56.280Z,35.49
2023-05-14T10:28:56.208Z,36.31
2023-05-14T10:29:56.188Z,37.34
2023-05-14T10:30:56.184Z,38.46
2023-05-14T10:31:56.247Z,39.79
2023-05-14T10:32:56.138Z,41.20
2023-05-14T10:33:57.512Z,41.34
2023-05-14T10:34:56.135Z,41.55
2023-05-14T10:35:56.153Z,41.77
2023-05-14T10:36:56.106Z,42.69
2023-05-14T10:37:56.138Z,42.81
2023-05-14T10:38:56.364Z,42.53
2023-05-14T10:39:56.089Z,44.12
2023-05-14T10:40:56.105Z,43.65
2023-05-14T10:41:56.264Z,43.25
2023-05-14T10:42:56.249Z,43.15
2023-05-14T10:43:57.003Z,44.74
2023-05-14T10:44:56.078Z,45.14
2023-05-14T10:45:56.089Z,45.44
2023-05-14T10:46:58.072Z,44.24
2023-05-14T10:47:56.045Z,45.44
2023-05-14T10:48:55.904Z,45.44
2023-05-14T10:49:55.917Z,45.34
2023-05-14T10:50:56.101Z,45.04
2023-05-14T10:51:56.081Z,44.32
2023-05-14T10:52:55.916Z,45.62
2023-05-14T10:53:55.927Z,45.22
2023-05-14T10:54:55.868Z,46.51
2023-05-14T10:55:55.894Z,45.44
2023-05-14T10:56:55.999Z,44.76
2023-05-14T10:57:56.022Z,45.06
2023-05-14T10:58:55.850Z,47.26
2023-05-14T10:59:56.064Z,49.45
2023-05-14T11:00:55.754Z,49.45
2023-05-14T11:01:55.875Z,48.58
2023-05-14T11:02:55.940Z,48.48
2023-05-14T11:03:56.284Z,49.77
2023-05-14T11:04:55.701Z,48.78
2023-05-14T11:05:55.893Z,50.17
2023-05-14T11:06:55.757Z,47.71
2023-05-14T11:07:56.014Z,48.10
2023-05-14T11:08:55.697Z,47.71
2023-05-14T11:09:55.762Z,48.30
2023-05-14T11:10:55.640Z,46.70
2023-05-14T11:11:56.289Z,47.28
2023-05-14T11:12:56.725Z,47.98
2023-05-14T11:13:56.555Z,49.48
2023-05-14T11:14:55.567Z,47.78
2023-05-14T11:15:55.814Z,48.65
2023-05-14T11:16:55.633Z,48.65
2023-05-14T11:17:55.849Z,47.06
2023-05-14T11:18:55.556Z,47.24
2023-05-14T11:19:55.690Z,46.22
2023-05-14T11:20:55.601Z,46.27
2023-05-14T11:21:55.529Z,44.35
2023-05-14T11:22:55.508Z,43.75
2023-05-14T11:23:55.808Z,40.31
2023-05-14T11:24:55.478Z,38.73
2023-05-14T11:25:55.589Z,39.04
2023-05-14T11:26:55.618Z,38.06
2023-05-14T11:27:56.291Z,37.79
2023-05-14T11:28:55.460Z,39.10
2023-05-14T11:29:56.189Z,39.91
2023-05-14T11:30:55.406Z,40.03
2023-05-14T11:31:55.377Z,39.43
2023-05-14T11:32:55.561Z,39.71
2023-05-14T11:33:55.396Z,39.51
2023-05-14T11:34:55.355Z,39.91
2023-05-14T11:35:55.326Z,40.09
2023-05-14T11:36:55.301Z,37.74
2023-05-14T11:37:55.330Z,35.77
2023-05-14T11:38:55.360Z,34.36
2023-05-14T11:39:55.302Z,32.69
2023-05-14T11:40:55.430Z,34.27
2023-05-14T11:41:55.224Z,33.67
2023-05-14T11:42:55.222Z,35.15
2023-05-14T11:43:55.371Z,33.22
2023-05-14T11:44:55.336Z,34.82
2023-05-14T11:45:55.203Z,35.94
2023-05-14T11:46:55.228Z,36.18
2023-05-14T11:47:56.059Z,35.02
2023-05-14T11:48:55.196Z,36.33
2023-05-14T11:49:55.107Z,38.44
2023-05-14T11:50:55.130Z,47.21
2023-05-14T11:51:55.137Z,51.03
2023-05-14T11:52:55.225Z,50.33
2023-05-14T11:53:55.109Z,57.20
2023-05-14T11:54:55.031Z,56.29
2023-05-14T11:55:55.086Z,58.34
2023-05-14T11:56:55.008Z,56.87
2023-05-14T11:57:55.337Z,60.06
2023-05-14T11:58:55.174Z,57.26
2023-05-14T11:59:54.967Z,59.77
2023-05-14T12:00:55.096Z,58.24
2023-05-14T12:01:54.930Z,59.98
2023-05-14T12:02:55.010Z,58.36
2023-05-14T12:03:55.154Z,56.87
2023-05-14T12:04:54.916Z,55.33
2023-05-14T12:05:54.993Z,51.10
2023-05-14T12:06:54.882Z,52.72
2023-05-14T12:07:54.846Z,46.57
2023-05-14T12:08:54.889Z,48.08
2023-05-14T12:09:54.838Z,47.49
2023-05-14T12:10:55.053Z,43.83
2023-05-14T12:11:54.762Z,39.79
2023-05-14T12:12:55.337Z,42.07
2023-05-14T12:13:54.831Z,41.79
2023-05-14T12:14:54.742Z,41.69
2023-05-14T12:15:54.774Z,39.61
2023-05-14T12:16:54.702Z,39.93
2023-05-14T12:17:54.809Z,38.96
2023-05-14T12:18:54.738Z,42.21
2023-05-14T12:19:54.690Z,41.02
2023-05-14T12:20:54.738Z,42.01
2023-05-14T12:21:54.679Z,42.68
2023-05-14T12:22:54.681Z,39.51
2023-05-14T12:23:54.657Z,38.23
2023-05-14T12:24:54.719Z,40.88
2023-05-14T12:25:54.758Z,41.46
2023-05-14T12:26:54.722Z,38.49
2023-05-14T12:27:54.834Z,39.48
2023-05-14T12:28:54.574Z,37.30
2023-05-14T12:29:54.540Z,39.50
2023-05-14T12:30:54.556Z,39.79
2023-05-14T12:31:54.588Z,41.06
2023-05-14T12:32:54.695Z,40.76
2023-05-14T12:33:54.463Z,40.37
2023-05-14T12:34:54.536Z,40.09
2023-05-14T12:35:54.706Z,40.66
2023-05-14T12:36:54.458Z,40.17
2023-05-14T12:37:54.975Z,38.98
2023-05-14T12:38:55.453Z,37.91
2023-05-14T12:39:54.448Z,39.91
2023-05-14T12:40:54.372Z,41.20
2023-05-14T12:41:54.409Z,41.12
2023-05-14T12:42:56.137Z,40.62
2023-05-14T12:43:54.376Z,40.15
2023-05-14T12:44:54.461Z,37.39
2023-05-14T12:45:54.356Z,38.68
2023-05-14T12:46:54.429Z,38.88
2023-05-14T12:47:54.369Z,40.66
2023-05-14T12:48:54.301Z,41.26
2023-05-14T12:49:54.340Z,41.63
2023-05-14T12:50:54.272Z,42.49
2023-05-14T12:52:07.860Z,39.91